METAR Data
IDs: Format: Raw Decoded Include TAF

Data at: 2147 UTC 18 Apr 2021

KMLB 182053Z 06010KT 10SM FEW055 SCT070 26/22 A2984 RMK AO2 SLP105 T02560217 58016 $
KMLB 181953Z 04012KT 10SM FEW048 SCT055 BKN070 27/22 A2986 RMK AO2 WSHFT 1845 SLP110 T02670217 $
KMLB 181905Z 02019KT 10SM SCT048 BKN060 27/21 A2987 RMK AO2 WSHFT 1845 T02670211
KMLB 181853Z 33012G22KT 300V360 10SM FEW047 31/19 A2988 RMK AO2 SLP116 T03110194
KMLB 181753Z 22009G17KT 10SM FEW047 31/19 A2989 RMK AO2 SLP120 T03110189 10317 20228 58015
KMLB 181653Z 25011KT 10SM BKN042 BKN050 BKN060 29/19 A2991 RMK AO2 SLP127 T02890189
KMLB 181553Z 25010KT 10SM BKN039 BKN048 29/20 A2992 RMK AO2 SLP132 T02940200
KMLB 181453Z 24009KT 10SM FEW025 SCT032 27/21 A2993 RMK AO2 SLP135 T02720206 53004 $
KMLB 181353Z 20009KT 10SM CLR 27/21 A2992 RMK AO2 SLP131 T02670211
KMLB 181253Z 21010KT 10SM CLR 25/22 A2993 RMK AO2 SLP135 T02500217
KMLB 181223Z 21006KT 10SM SCT008 24/21 A2993 RMK AO2 T02390211
KMLB 181205Z 22005KT 10SM BKN009 23/21 A2993 RMK AO2 T02330206
KMLB 181203Z 21006KT 10SM SCT011 23/21 A2993 RMK AO2 T02330206
KMLB 181153Z 20006KT 10SM BKN011 23/21 A2992 RMK AO2 SLP131 T02280206 10233 20222 52006
KMLB 181053Z 15005KT 10SM OVC013 23/19 A2992 RMK AO2 SLP130 T02280194
KMLB 181029Z 00000KT 10SM OVC014 23/19 A2992 RMK AO2 T02280194
KMLB 180953Z 17004KT 10SM OVC015 23/19 A2991 RMK AO2 SLP126 T02280194
KMLB 180930Z AUTO 13003KT 10SM BKN016 23/19 A2990 RMK AO2 T02280194
KMLB 180853Z AUTO 07004KT 10SM FEW018 FEW065 SCT080 22/19 A2990 RMK AO2 SLP125 T02220189 58000
KMLB 180753Z AUTO 04004KT 10SM FEW021 BKN065 22/19 A2991 RMK AO2 SLP128 T02220194
KMLB 180749Z AUTO 03004KT 10SM FEW021 SCT065 22/19 A2990 RMK AO2
KMLB 180653Z AUTO 02008KT 10SM FEW009 BKN017 OVC034 23/20 A2990 RMK AO2 SLP126 T02280200
KMLB 180639Z AUTO 03008KT 10SM SCT008 BKN015 OVC021 23/21 A2990 RMK AO2 T02280206
KMLB 180632Z AUTO 03007KT 10SM BKN008 BKN015 OVC022 23/21 A2990 RMK AO2 T02280211
KMLB 180620Z AUTO 02005KT 10SM SCT007 OVC017 23/21 A2989 RMK AO2 T02330211
KMLB 180553Z AUTO 34003KT 10SM BKN019 22/21 A2991 RMK AO2 SLP126 T02220206 10278 20222 58003
KMLB 180453Z AUTO 28005KT 10SM FEW025 22/19 A2992 RMK AO2 SLP131 T02220194 403170206
KMLB 180353Z AUTO 31006KT 10SM CLR 23/19 A2992 RMK AO2 SLP129 T02330189
KMLB 180253Z 27009KT 10SM CLR 24/19 A2988 RMK AO2 SLP116 T02390189 51017
KMLB 180153Z 27008KT 10SM CLR 25/19 A2986 RMK AO2 SLP111 T02500189
KMLB 180053Z 26007KT 10SM CLR 26/19 A2984 RMK AO2 SLP105 T02610189
KMLB 172353Z 27006KT 10SM CLR 28/19 A2982 RMK AO2 SLP099 T02780189 10317 20278 53005
KMLB 172253Z 26009KT 10SM CLR 30/18 A2981 RMK AO2 SLP095 T03000183
KMLB 172153Z 27010KT 10SM CLR 31/18 A2981 RMK AO2 SLP093 T03060183
KMLB 172053Z 27014G19KT 10SM FEW060 32/17 A2981 RMK AO2 SLP094 T03170172 56016
KMLB 171953Z 24013G21KT 10SM CLR 32/17 A2982 RMK AO2 SLP095 T03170167
KMLB 171853Z 25011KT 10SM CLR 31/18 A2983 RMK AO2 SLP099 T03110178
KMLB 171753Z 24015G19KT 10SM FEW042 30/17 A2986 RMK AO2 SLP109 T03000167 10306 20211 58007
KMLB 171653Z 24015G22KT 10SM SCT039 29/18 A2987 RMK AO2 SLP114 T02890183
KMLB 171553Z 24017KT 10SM SCT028 28/19 A2989 RMK AO2 SLP122 T02830189
KMLB 171453Z 23011KT 7SM FEW022 SCT120 26/20 A2988 RMK AO2 SLP117 T02610200 50004
KMLB 171353Z 24012KT 6SM HZ FEW006 25/21 A2991 RMK AO2 SLP127 T02500206
KMLB 171320Z 24009KT 5SM HZ CLR 23/21 A2991 RMK AO2 T02330206
KMLB 171255Z 24007KT 2 1/2SM BR CLR 23/21 A2989 RMK AO2 T02280211
KMLB 171253Z 25007KT 5SM BR BKN005 23/21 A2990 RMK AO2 SLP123 T02280211
KMLB 171203Z 23010KT 3SM BR BKN005 22/21 A2988 RMK AO2 T02170206
KMLB 171153Z 22009KT 3SM BR BKN004 21/20 A2987 RMK AO2 SLP112 T02110200 10217 20206 53009
KMLB 171136Z 23008KT 3SM BR BKN004 21/20 A2987 RMK AO2 T02110200
KMLB 171125Z 22010KT 2 1/2SM BR OVC004 21/20 A2987 RMK AO2 T02110200
KMLB 171053Z 21011KT 7SM BKN006 21/19 A2985 RMK AO2 SLP107 T02110194
KMLB 170953Z 22007KT 10SM CLR 21/18 A2984 RMK AO2 SLP105 T02110183